Time;durP1;ratioP1;P1;durP2;ratioP2;P2;SDS_P1;SDS_P2;PMS_P1;PMS_P2;Temp;Humidity;BMP_temperature;BMP_pressure;BME280_temperature;BME280_humidity;BME280_pressure;Samples;Min_cycle;Max_cycle;Signal;HPM_P1;HPM_P2
2020/12/25 00:01:20;;;;;;;8.98;5.22;;;;;;;12.41;60.78;97067.47;5035769;28;20154;-84
2020/12/25 00:03:46;;;;;;;6.20;3.65;;;;;;;12.39;61.64;97045.28;5035860;28;20036;-83
2020/12/25 00:06:11;;;;;;;9.70;5.63;;;;;;;12.37;61.18;97044.53;5043743;28;20025;-84
2020/12/25 00:08:37;;;;;;;12.75;7.03;;;;;;;12.16;62.66;97053.34;5035330;28;20112;-84
2020/12/25 00:11:03;;;;;;;19.85;8.43;;;;;;;11.85;63.57;97047.63;5036218;28;20060;-84
2020/12/25 00:13:29;;;;;;;14.40;7.90;;;;;;;11.62;64.89;97058.31;5059542;28;20029;-83
2020/12/25 00:15:54;;;;;;;6.10;3.55;;;;;;;11.97;61.80;97045.03;5035615;28;20036;-83
2020/12/25 00:18:20;;;;;;;9.88;4.53;;;;;;;12.26;61.09;97060.59;5043322;28;20059;-84
2020/12/25 00:20:51;;;;;;;10.05;5.50;;;;;;;12.34;61.00;97073.41;5049885;28;20029;-83
2020/12/25 00:23:16;;;;;;;10.27;5.82;;;;;;;12.50;60.00;97064.06;5047186;28;20487;-84
2020/12/25 00:25:42;;;;;;;10.38;6.30;;;;;;;12.57;60.17;97064.44;5046054;28;20039;-84
2020/12/25 00:28:08;;;;;;;11.98;5.53;;;;;;;12.59;59.99;97057.13;5055073;28;20416;-84
2020/12/25 00:30:34;;;;;;;6.97;4.38;;;;;;;12.55;59.83;97055.66;5055230;28;20040;-84
2020/12/25 00:32:59;;;;;;;8.13;4.50;;;;;;;12.55;59.60;97057.50;5055134;28;20036;-84
2020/12/25 00:35:25;;;;;;;4.50;2.78;;;;;;;12.71;58.84;97060.66;5054594;28;20044;-84
2020/12/25 00:37:51;;;;;;;6.28;3.53;;;;;;;12.89;58.24;97059.22;5054991;28;20039;-84
2020/12/25 00:40:17;;;;;;;8.70;3.92;;;;;;;12.91;57.79;97051.91;5038541;28;20032;-84
2020/12/25 00:42:42;;;;;;;8.70;5.45;;;;;;;12.86;58.18;97060.31;5071883;28;20028;-84
2020/12/25 00:45:08;;;;;;;9.43;5.45;;;;;;;12.90;58.09;97060.94;5054174;28;20058;-84
2020/12/25 00:47:33;;;;;;;11.63;5.90;;;;;;;12.80;58.49;97054.56;5041117;28;20085;-84
2020/12/25 00:49:59;;;;;;;23.77;10.27;;;;;;;12.73;59.01;97062.28;5045793;28;20033;-85
2020/12/25 00:52:25;;;;;;;20.75;8.30;;;;;;;12.59;58.89;97061.63;5053043;28;20549;-84
2020/12/25 00:54:51;;;;;;;9.60;5.53;;;;;;;12.57;58.95;97058.22;5047485;28;20032;-84
2020/12/25 00:57:17;;;;;;;11.40;5.25;;;;;;;12.71;58.09;97055.31;5045211;28;20028;-84
2020/12/25 00:59:43;;;;;;;17.70;7.70;;;;;;;12.80;58.65;97054.56;5043572;28;20037;-83
2020/12/25 01:02:09;;;;;;;16.95;7.07;;;;;;;12.76;58.15;97055.81;5051549;28;20501;-84
2020/12/25 01:04:34;;;;;;;10.00;5.75;;;;;;;12.75;58.48;97063.00;5044403;28;20544;-83
2020/12/25 01:07:06;;;;;;;11.68;6.80;;;;;;;12.70;58.93;97059.84;5039706;28;20036;-83
2020/12/25 01:09:32;;;;;;;12.80;7.22;;;;;;;12.61;58.99;97062.38;5063532;28;20042;-83
2020/12/25 01:12:00;;;;;;;8.85;4.80;;;;;;;12.56;59.49;97061.88;5054559;28;20060;-84
2020/12/25 01:14:32;;;;;;;10.55;5.93;;;;;;;12.47;59.82;97060.75;5054723;28;20032;-83
2020/12/25 01:16:58;;;;;;;8.80;5.13;;;;;;;12.35;60.07;97065.25;5054614;28;20483;-83
2020/12/25 01:19:25;;;;;;;8.43;4.85;;;;;;;12.36;60.06;97050.88;5051245;28;20116;-82
2020/12/25 01:21:50;;;;;;;10.60;5.80;;;;;;;12.36;60.00;97050.00;5054229;28;20506;-83
2020/12/25 01:24:16;;;;;;;12.07;6.00;;;;;;;12.33;60.08;97039.53;5054180;28;20040;-84
2020/12/25 01:26:42;;;;;;;8.55;5.00;;;;;;;12.30;60.12;97054.03;5053945;28;20032;-83
2020/12/25 01:29:07;;;;;;;12.20;7.03;;;;;;;12.25;60.35;97050.81;5054675;28;20028;-83
2020/12/25 01:31:33;;;;;;;14.25;7.20;;;;;;;12.14;60.79;97040.09;5050591;28;20094;-83
2020/12/25 01:33:59;;;;;;;9.50;5.50;;;;;;;12.12;61.11;97051.91;5042384;28;20043;-83
2020/12/25 01:36:25;;;;;;;9.63;5.53;;;;;;;12.12;60.69;97051.91;5085931;28;20037;-83
2020/12/25 01:38:51;;;;;;;14.43;7.47;;;;;;;12.09;61.09;97061.00;5098053;28;20031;-83
2020/12/25 01:41:16;;;;;;;13.95;7.13;;;;;;;12.03;61.35;97053.44;5089616;28;20027;-83
2020/12/25 01:43:42;;;;;;;13.10;6.68;;;;;;;11.99;61.47;97054.66;5082088;28;20030;-84
2020/12/25 01:46:08;;;;;;;23.17;10.13;;;;;;;11.85;62.25;97044.94;5089992;28;20023;-84
2020/12/25 01:48:35;;;;;;;24.13;10.40;;;;;;;11.69;62.23;97030.13;5080945;28;20031;-85
2020/12/25 01:51:00;;;;;;;19.95;9.48;;;;;;;11.72;62.60;97044.16;5086336;27;20035;-83
2020/12/25 01:53:27;;;;;;;12.73;5.82;;;;;;;11.91;61.19;97047.16;5085073;27;20030;-84
2020/12/25 01:55:53;;;;;;;9.75;5.85;;;;;;;11.95;61.46;97042.44;5096763;28;20027;-84
2020/12/25 01:58:21;;;;;;;9.43;4.75;;;;;;;12.03;61.62;97031.97;5082169;28;20037;-83
2020/12/25 02:00:47;;;;;;;8.82;5.22;;;;;;;11.99;62.44;97035.88;5103720;27;20019;-84
2020/12/25 02:03:15;;;;;;;13.65;5.93;;;;;;;11.85;62.93;97044.09;5111894;27;20024;-82
2020/12/25 02:05:43;;;;;;;12.38;5.50;;;;;;;11.71;63.66;97036.25;5061568;28;20066;-82
2020/12/25 02:08:09;;;;;;;11.95;6.13;;;;;;;11.57;63.75;97036.38;5092302;27;20054;-82
2020/12/25 02:10:36;;;;;;;11.80;6.05;;;;;;;11.44;64.18;97044.47;5085848;27;20038;-83
2020/12/25 02:13:02;;;;;;;19.90;9.68;;;;;;;11.41;64.60;97042.84;5092273;27;20019;-83
2020/12/25 02:15:28;;;;;;;10.05;5.70;;;;;;;11.37;63.61;97037.84;5091793;27;20039;-84
2020/12/25 02:17:53;;;;;;;29.58;11.32;;;;;;;11.50;62.94;97038.66;5099579;27;20057;-83
2020/12/25 02:20:19;;;;;;;40.05;14.38;;;;;;;11.56;63.68;97042.72;5111026;27;20055;-83
2020/12/25 02:22:45;;;;;;;40.60;16.38;;;;;;;11.59;62.92;97037.13;5089650;28;20479;-81
2020/12/25 02:25:11;;;;;;;45.88;18.05;;;;;;;11.48;63.51;97020.97;5105880;27;20031;-83
2020/12/25 02:27:36;;;;;;;36.70;16.55;;;;;;;11.51;64.36;97036.81;5085845;27;20031;-83
2020/12/25 02:30:04;;;;;;;48.45;19.40;;;;;;;11.36;64.96;97022.75;5087506;28;20499;-84
2020/12/25 02:32:30;;;;;;;49.83;20.52;;;;;;;11.24;65.62;97027.19;5095208;27;20435;-83
2020/12/25 02:34:55;;;;;;;39.95;17.90;;;;;;;11.19;66.01;97013.28;5095623;28;20099;-83
2020/12/25 02:37:21;;;;;;;40.30;17.50;;;;;;;11.07;65.99;97022.22;5089811;28;20030;-83
2020/12/25 02:39:47;;;;;;;38.50;17.80;;;;;;;10.96;67.20;97019.44;5089219;27;20114;-83
2020/12/25 02:42:13;;;;;;;37.75;15.95;;;;;;;10.83;67.99;97010.56;5079875;28;20397;-82
2020/12/25 02:44:38;;;;;;;28.05;13.27;;;;;;;10.84;67.94;97021.16;5096615;27;20039;-83
2020/12/25 02:47:04;;;;;;;66.85;26.13;;;;;;;10.64;68.92;97020.88;5085457;27;20031;-83
2020/12/25 02:49:30;;;;;;;100.88;45.88;;;;;;;10.51;69.45;97006.66;5106153;27;20446;-83
2020/12/25 02:51:56;;;;;;;57.33;26.00;;;;;;;10.60;69.13;97014.03;5091809;27;20027;-83
2020/12/25 02:54:21;;;;;;;113.63;49.58;;;;;;;10.33;70.83;97007.00;5090471;28;20030;-83
2020/12/25 02:56:47;;;;;;;76.93;33.60;;;;;;;10.22;70.95;96998.84;5091018;27;20062;-83
2020/12/25 02:59:13;;;;;;;65.88;30.77;;;;;;;10.30;70.91;96991.13;5098485;27;20035;-83
2020/12/25 03:01:38;;;;;;;50.95;24.70;;;;;;;10.24;70.77;96990.75;5100185;28;20027;-83
2020/12/25 03:04:04;;;;;;;36.60;17.40;;;;;;;10.21;70.77;96982.94;5084602;27;20054;-83
2020/12/25 03:06:29;;;;;;;37.58;19.17;;;;;;;10.22;70.96;96998.84;5089652;28;20038;-83
2020/12/25 03:08:55;;;;;;;31.38;16.05;;;;;;;10.15;71.41;96996.72;5080505;28;20578;-84
2020/12/25 03:11:39;;;;;;;19.88;11.20;;;;;;;10.11;71.12;96984.50;5086704;27;20020;-83
2020/12/25 03:14:05;;;;;;;37.17;18.48;;;;;;;10.04;72.49;96997.41;5103130;27;20038;-83
2020/12/25 03:16:31;;;;;;;62.00;33.78;;;;;;;9.92;72.79;97006.28;5089227;28;20490;-83
2020/12/25 03:18:56;;;;;;;25.48;14.52;;;;;;;9.85;73.50;97009.44;5094995;28;20019;-83
2020/12/25 03:21:23;;;;;;;34.53;17.40;;;;;;;9.77;73.94;97007.31;5087183;27;20031;-83
2020/12/25 03:23:49;;;;;;;35.28;18.63;;;;;;;9.68;74.78;97016.81;5081346;28;20387;-83
2020/12/25 03:26:15;;;;;;;30.00;14.80;;;;;;;9.67;74.87;96995.53;5084351;27;20026;-83
2020/12/25 03:28:41;;;;;;;17.42;9.50;;;;;;;9.69;74.49;96998.97;5108899;27;20530;-83
2020/12/25 03:31:07;;;;;;;18.80;9.32;;;;;;;9.75;74.22;97002.06;5099812;27;20072;-84
2020/12/25 03:33:32;;;;;;;15.68;9.55;;;;;;;9.69;74.92;97001.66;5091282;27;20496;-84
2020/12/25 03:35:58;;;;;;;25.25;13.05;;;;;;;9.58;75.60;96996.16;5116471;27;20103;-83
2020/12/25 03:38:24;;;;;;;26.60;14.90;;;;;;;9.51;76.22;96987.69;5084892;28;20031;-83
2020/12/25 03:40:49;;;;;;;14.73;8.65;;;;;;;9.63;75.35;96988.69;5089340;27;20113;-83
2020/12/25 03:43:15;;;;;;;12.95;7.45;;;;;;;9.71;75.12;96987.22;5093432;28;20060;-84
2020/12/25 03:45:41;;;;;;;20.40;11.20;;;;;;;9.71;75.14;96997.03;5111955;27;20035;-83
2020/12/25 03:48:07;;;;;;;21.85;11.30;;;;;;;9.58;75.52;97001.50;5091567;27;20031;-83
2020/12/25 03:50:32;;;;;;;25.83;12.82;;;;;;;9.43;77.03;97003.38;5099115;27;20034;-83
2020/12/25 03:52:58;;;;;;;19.13;10.32;;;;;;;9.37;77.20;96998.44;5090229;27;20046;-84
2020/12/25 03:55:24;;;;;;;13.93;7.57;;;;;;;9.33;77.00;96975.56;5110426;28;20069;-83
2020/12/25 03:57:49;;;;;;;12.13;6.57;;;;;;;9.18;77.87;96953.44;5105613;27;20065;-83
2020/12/25 04:00:15;;;;;;;10.57;5.40;;;;;;;9.17;77.30;96942.84;5083890;27;20060;-83
2020/12/25 04:02:41;;;;;;;10.07;5.53;;;;;;;9.07;79.15;96966.63;5089103;27;20043;-83
2020/12/25 04:05:06;;;;;;;20.98;7.15;;;;;;;8.81;79.32;96963.91;5095125;28;20028;-83
2020/12/25 04:07:32;;;;;;;13.98;8.15;;;;;;;8.65;81.16;96967.56;5088504;28;20054;-83
2020/12/25 04:09:58;;;;;;;15.82;8.55;;;;;;;8.54;81.02;96956.75;5089089;27;20035;-83
2020/12/25 04:12:23;;;;;;;18.10;9.05;;;;;;;8.45;81.89;96961.78;5098581;27;20023;-83
2020/12/25 04:14:49;;;;;;;24.17;12.07;;;;;;;8.53;81.64;96956.81;5089179;28;20034;-83
2020/12/25 04:17:15;;;;;;;37.50;17.45;;;;;;;8.52;82.32;96955.13;5086433;28;20031;-83
2020/12/25 04:19:40;;;;;;;32.60;16.45;;;;;;;8.48;82.55;96957.13;5077916;28;20092;-83
2020/12/25 04:22:06;;;;;;;28.60;13.93;;;;;;;8.40;82.90;96956.72;5091637;27;20038;-84
2020/12/25 04:24:32;;;;;;;24.77;12.88;;;;;;;8.30;84.06;96965.41;5115470;27;20027;-83
2020/12/25 04:26:57;;;;;;;38.38;17.27;;;;;;;8.37;82.58;96951.59;5090499;27;20047;-83
2020/12/25 04:29:23;;;;;;;21.80;11.18;;;;;;;8.43;82.16;96953.88;5098781;27;20062;-82
2020/12/25 04:31:50;;;;;;;28.48;13.18;;;;;;;8.52;82.10;96968.47;5090038;28;20028;-83
2020/12/25 04:34:15;;;;;;;30.23;14.43;;;;;;;8.52;81.47;96961.28;5097881;27;20494;-83
2020/12/25 04:36:41;;;;;;;39.25;17.38;;;;;;;8.47;82.83;96973.19;5098204;27;20023;-83
2020/12/25 04:39:07;;;;;;;26.17;13.00;;;;;;;8.40;82.90;96971.88;5096988;27;20474;-83
2020/12/25 04:41:34;;;;;;;23.02;10.15;;;;;;;8.34;83.37;96966.91;5109997;27;20027;-83
2020/12/25 04:44:01;;;;;;;27.20;12.90;;;;;;;8.25;84.22;96978.97;5089415;28;20035;-84
2020/12/25 04:46:26;;;;;;;21.27;10.30;;;;;;;8.11;84.22;96965.66;5077510;28;20026;-83
2020/12/25 04:48:53;;;;;;;17.67;8.90;;;;;;;8.08;84.02;96968.50;5087392;27;20027;-83
2020/12/25 04:51:19;;;;;;;70.07;29.90;;;;;;;8.10;84.04;96971.94;5089510;27;20121;-83
2020/12/25 04:53:52;;;;;;;52.70;23.80;;;;;;;8.03;84.25;96963.44;5096730;27;20518;-83
2020/12/25 04:56:19;;;;;;;42.20;20.35;;;;;;;8.08;84.04;96971.19;5076586;27;20031;-83
2020/12/25 04:58:46;;;;;;;84.03;34.70;;;;;;;8.02;84.37;96963.56;5093821;27;20023;-83
2020/12/25 05:01:12;;;;;;;38.88;17.92;;;;;;;8.10;84.18;96972.78;5094968;28;20502;-82
2020/12/25 05:03:42;;;;;;;99.20;44.33;;;;;;;7.90;85.83;96969.63;5082937;27;20066;-83
2020/12/25 05:06:09;;;;;;;74.68;32.15;;;;;;;7.81;86.24;96962.22;5087539;28;20056;-83
2020/12/25 05:08:43;;;;;;;80.47;36.08;;;;;;;7.86;86.95;96984.94;5077558;28;20027;-83
2020/12/25 05:11:10;;;;;;;81.65;37.13;;;;;;;7.80;86.68;96977.31;5077530;28;20024;-83
2020/12/25 05:13:50;;;;;;;36.75;16.70;;;;;;;7.93;85.65;96954.34;5092292;28;20030;-84
2020/12/25 05:16:16;;;;;;;97.93;44.03;;;;;;;8.08;86.39;96977.38;5086995;28;20054;-83
2020/12/25 05:18:44;;;;;;;67.95;30.63;;;;;;;8.00;86.00;96982.28;5087375;28;20113;-83
2020/12/25 05:21:12;;;;;;;49.97;24.15;;;;;;;8.06;85.54;96979.25;5096293;28;20387;-83
2020/12/25 05:23:38;;;;;;;64.93;28.42;;;;;;;8.14;84.90;96979.66;5083594;28;20069;-83
2020/12/25 05:26:06;;;;;;;38.30;19.75;;;;;;;8.14;85.45;96974.31;5115046;27;20481;-83
2020/12/25 05:28:36;;;;;;;60.88;30.67;;;;;;;8.10;85.47;96980.78;5094591;27;20439;-83
2020/12/25 05:31:02;;;;;;;51.63;26.42;;;;;;;8.05;85.75;96966.91;5093344;27;20035;-83
2020/12/25 05:33:27;;;;;;;60.78;31.48;;;;;;;8.05;86.02;96966.91;5116986;27;20519;-82
2020/12/25 05:35:56;;;;;;;53.03;26.75;;;;;;;8.05;86.69;96968.69;5086689;28;20051;-83
2020/12/25 05:38:23;;;;;;;58.33;28.58;;;;;;;8.01;86.17;96968.03;5100454;27;20092;-83
2020/12/25 05:40:49;;;;;;;85.93;43.50;;;;;;;8.21;84.94;96976.59;5119196;27;20019;-82
2020/12/25 05:43:16;;;;;;;46.92;24.73;;;;;;;8.06;85.36;96963.25;5083113;28;20110;-83
2020/12/25 05:45:43;;;;;;;39.58;20.33;;;;;;;7.94;86.39;96980.00;5081233;28;20619;-84
2020/12/25 05:48:09;;;;;;;56.42;28.85;;;;;;;7.78;87.17;96965.91;5089565;28;20031;-83
2020/12/25 05:50:35;;;;;;;44.90;23.35;;;;;;;7.81;86.14;96952.41;5088671;28;20034;-83
2020/12/25 05:53:01;;;;;;;41.30;21.77;;;;;;;7.78;87.63;96957.94;5098629;27;20030;-84
2020/12/25 05:55:27;;;;;;;58.33;28.23;;;;;;;7.74;87.70;96966.19;5087789;28;20495;-83
2020/12/25 05:57:54;;;;;;;58.30;30.23;;;;;;;7.67;88.18;96946.19;5080720;28;20020;-83
2020/12/25 06:00:21;;;;;;;66.30;35.58;;;;;;;7.73;87.66;96946.69;5089832;27;20431;-84
2020/12/25 06:02:48;;;;;;;64.93;34.72;;;;;;;7.75;87.87;96947.47;5088228;28;20037;-83
2020/12/25 06:05:15;;;;;;;57.83;30.98;;;;;;;7.64;88.20;96937.44;5082420;27;20023;-83
2020/12/25 06:07:48;;;;;;;91.22;47.42;;;;;;;7.63;88.35;96964.16;5101412;27;20090;-83
2020/12/25 06:10:22;;;;;;;69.68;36.35;;;;;;;7.52;88.63;96950.63;5099458;27;20472;-83
2020/12/25 06:12:48;;;;;;;66.53;32.30;;;;;;;7.57;88.90;96964.50;5092437;27;20034;-83
2020/12/25 06:15:24;;;;;;;81.70;41.95;;;;;;;7.75;88.20;96958.13;5086261;27;20114;-84
2020/12/25 06:18:26;;;;;;;67.65;32.33;;;;;;;7.95;86.58;96964.88;5106267;27;20054;-84
2020/12/25 06:20:58;;;;;;;53.20;28.27;;;;;;;8.12;85.34;96986.03;5058068;27;20034;-83
2020/12/25 06:23:25;;;;;;;66.75;33.45;;;;;;;8.19;85.43;96985.53;5090596;27;20031;-82
2020/12/25 06:25:51;;;;;;;72.10;35.03;;;;;;;8.27;84.54;96984.22;5089604;28;20096;-84
2020/12/25 06:28:23;;;;;;;40.45;19.95;;;;;;;8.47;83.55;96999.84;5107301;27;20081;-80
2020/12/25 06:30:52;;;;;;;47.10;23.95;;;;;;;8.57;83.04;96996.53;5089007;28;20027;-82
2020/12/25 06:33:44;;;;;;;53.47;28.58;;;;;;;8.75;81.48;96994.50;5082571;28;20090;-84
2020/12/25 06:36:11;;;;;;;60.20;32.25;;;;;;;8.76;81.21;96988.22;5111099;28;20040;-87
2020/12/25 06:38:42;;;;;;;53.17;25.63;;;;;;;8.81;81.57;96988.78;5116358;28;20482;-84
2020/12/25 06:41:10;;;;;;;59.67;29.55;;;;;;;8.84;80.96;96982.38;5115288;28;20023;-85
2020/12/25 06:43:36;;;;;;;92.18;42.78;;;;;;;9.07;79.67;96995.97;5113828;28;20530;-84
2020/12/25 06:46:03;;;;;;;86.13;38.55;;;;;;;9.02;80.53;96998.06;5094894;28;20110;-84
2020/12/25 06:48:29;;;;;;;67.45;30.10;;;;;;;9.19;79.10;96973.81;5094690;28;20482;-85
2020/12/25 06:50:57;;;;;;;69.88;34.45;;;;;;;9.53;78.45;96980.44;5088647;28;20120;-84
2020/12/25 06:53:42;;;;;;;72.03;37.38;;;;;;;9.65;77.49;96960.94;5093616;28;20418;-84
2020/12/25 06:56:17;;;;;;;75.88;37.10;;;;;;;9.92;76.04;96966.19;5084201;28;20027;-85
2020/12/25 06:58:48;;;;;;;91.07;44.38;;;;;;;9.85;76.73;96982.75;5076229;28;20031;-84
2020/12/25 07:01:16;;;;;;;71.32;35.75;;;;;;;9.89;75.86;97000.28;5086487;28;20027;-84
2020/12/25 07:03:42;;;;;;;47.33;22.98;;;;;;;9.76;75.59;96977.06;5082488;28;20093;-83
2020/12/25 07:06:09;;;;;;;38.28;20.67;;;;;;;9.77;76.13;96993.97;5080129;28;20028;-85
2020/12/25 07:08:49;;;;;;;30.83;17.42;;;;;;;9.96;75.55;97004.25;5087426;28;20402;-87
2020/12/25 07:11:16;;;;;;;23.13;13.85;;;;;;;10.06;74.82;96989.31;5089116;28;20034;-86
2020/12/25 07:13:43;;;;;;;25.33;13.57;;;;;;;10.30;73.61;96999.16;5107989;28;20406;-84
2020/12/25 07:16:09;;;;;;;27.20;13.90;;;;;;;10.42;72.83;96997.47;5104890;28;20061;-84
2020/12/25 07:18:35;;;;;;;21.65;12.60;;;;;;;10.73;71.53;96999.69;5103440;28;20027;-84
2020/12/25 07:21:03;;;;;;;17.60;9.65;;;;;;;10.84;70.48;97001.59;5092522;28;20032;-83
2020/12/25 07:23:29;;;;;;;36.22;21.23;;;;;;;10.78;70.28;96980.63;5103809;28;20066;-83
2020/12/25 07:25:58;;;;;;;21.25;11.60;;;;;;;10.83;70.19;96997.19;5085395;28;20545;-84
2020/12/25 07:28:24;;;;;;;26.30;13.48;;;;;;;10.87;70.12;96996.88;5095642;28;20023;-84
2020/12/25 07:30:52;;;;;;;25.27;11.65;;;;;;;10.80;70.78;96989.38;5108401;28;20047;-83
2020/12/25 07:33:18;;;;;;;55.22;27.88;;;;;;;10.85;70.18;96981.91;5087186;28;20015;-83
2020/12/25 07:35:44;;;;;;;48.95;25.38;;;;;;;10.97;70.31;96990.84;5059819;28;20048;-84
2020/12/25 07:38:12;;;;;;;44.20;21.80;;;;;;;10.99;69.10;96995.13;5055798;28;20051;-83
2020/12/25 07:40:39;;;;;;;42.95;22.73;;;;;;;11.01;69.15;97009.28;5055232;28;20404;-84
2020/12/25 07:43:04;;;;;;;40.58;20.67;;;;;;;11.09;69.47;97008.69;5056077;28;20048;-85
2020/12/25 07:45:35;;;;;;;20.33;11.45;;;;;;;11.26;69.26;96998.47;5055814;28;20522;-84
2020/12/25 07:48:02;;;;;;;18.27;10.15;;;;;;;11.29;67.42;97000.06;5054550;28;20025;-84
2020/12/25 07:50:39;;;;;;;27.27;12.85;;;;;;;11.39;67.74;96993.91;5072748;28;20115;-85
2020/12/25 07:53:12;;;;;;;70.47;29.30;;;;;;;11.56;68.41;96999.84;5060701;28;20028;-86
2020/12/25 07:55:39;;;;;;;60.92;33.35;;;;;;;11.64;66.81;96992.09;5048404;28;20420;-85
2020/12/25 07:58:05;;;;;;;73.18;37.92;;;;;;;11.79;67.04;96990.97;5040591;28;20115;-83
2020/12/25 08:00:31;;;;;;;64.15;33.65;;;;;;;12.15;66.67;96990.00;5072026;28;20031;-84
2020/12/25 08:02:58;;;;;;;102.70;51.38;;;;;;;12.52;65.20;97007.59;5054221;28;20036;-84
2020/12/25 08:05:27;;;;;;;69.68;34.25;;;;;;;13.04;61.91;97009.72;5071169;28;20033;-87
2020/12/25 08:07:53;;;;;;;58.03;31.50;;;;;;;12.98;61.83;96997.59;5055768;28;20033;-85
2020/12/25 08:14:05;;;;;;;32.95;16.17;;;;;;;13.12;62.27;97009.97;5065533;28;20047;-85
2020/12/25 08:16:32;;;;;;;26.27;14.23;;;;;;;13.15;61.12;97001.66;5055409;28;20024;-84
2020/12/25 08:18:57;;;;;;;34.28;17.40;;;;;;;13.39;60.24;96998.81;5054966;28;20407;-85
2020/12/25 08:21:30;;;;;;;45.85;24.52;;;;;;;13.70;59.84;97018.63;5071914;28;20116;-87
2020/12/25 08:23:56;;;;;;;65.68;30.98;;;;;;;13.76;59.39;97008.22;5055095;28;20029;-86
2020/12/25 08:26:28;;;;;;;59.88;30.67;;;;;;;13.66;59.34;96995.69;5055703;28;20020;-85
2020/12/25 08:28:54;;;;;;;54.33;31.90;;;;;;;13.62;59.43;97018.41;5070208;28;20036;-84
2020/12/25 08:31:20;;;;;;;67.13;35.70;;;;;;;14.01;58.43;97017.78;5054075;28;20024;-85
2020/12/25 08:33:55;;;;;;;78.40;33.00;;;;;;;14.35;57.79;97011.28;5054718;28;20032;-82
2020/12/25 08:36:23;;;;;;;69.90;34.55;;;;;;;14.74;57.81;97011.50;5102141;27;20489;-84
2020/12/25 08:38:49;;;;;;;66.15;35.17;;;;;;;15.01;54.78;97019.88;5087369;27;20031;-84
2020/12/25 08:41:15;;;;;;;60.10;32.63;;;;;;;15.24;55.84;97018.66;5082875;27;20413;-84
2020/12/25 08:43:41;;;;;;;35.72;20.33;;;;;;;15.44;52.74;97009.66;5092101;27;20031;-83
2020/12/25 08:46:07;;;;;;;26.35;13.07;;;;;;;16.03;50.84;97022.25;5090138;27;20029;-82
2020/12/25 08:48:34;;;;;;;14.52;8.30;;;;;;;16.31;47.53;97013.31;5088282;27;20042;-83
2020/12/25 08:51:09;;;;;;;16.00;7.53;;;;;;;16.30;47.43;97000.81;5094012;27;20492;-82
2020/12/25 08:53:35;;;;;;;10.32;6.85;;;;;;;16.22;46.99;97000.66;5086277;27;20483;-82
2020/12/25 08:56:23;;;;;;;8.68;5.50;;;;;;;16.03;47.64;96987.19;5086721;27;20034;-83
2020/12/25 08:58:59;;;;;;;14.15;7.20;;;;;;;16.24;47.62;96996.00;5079286;28;20464;-81
2020/12/25 09:01:27;;;;;;;8.73;5.20;;;;;;;16.02;47.15;96977.41;5091447;28;20019;-83
2020/12/25 09:03:53;;;;;;;18.80;9.57;;;;;;;16.04;47.94;96983.50;5090399;28;20023;-85
2020/12/25 09:06:18;;;;;;;14.50;7.47;;;;;;;16.14;47.19;96979.81;5090254;28;20030;-83
2020/12/25 09:08:44;;;;;;;14.80;7.70;;;;;;;16.09;46.90;96965.03;5088659;27;20502;-85
2020/12/25 09:11:15;;;;;;;13.70;7.88;;;;;;;16.13;47.03;96969.16;5091893;27;20497;-87
2020/12/25 09:13:41;;;;;;;14.27;8.73;;;;;;;16.32;47.41;96961.03;5090188;28;20054;-84
2020/12/25 09:16:07;;;;;;;16.23;9.70;;;;;;;16.43;46.54;96963.56;5087055;28;20072;-82
2020/12/25 09:18:34;;;;;;;17.42;10.88;;;;;;;16.58;46.52;96962.13;5103151;28;20039;-86
2020/12/25 09:21:00;;;;;;;26.35;15.00;;;;;;;16.74;46.17;96962.38;5085293;28;20032;-86
2020/12/25 09:23:29;;;;;;;16.85;10.63;;;;;;;16.95;45.34;96959.44;5086243;28;20032;-86
2020/12/25 09:25:55;;;;;;;23.23;11.82;;;;;;;17.14;44.94;96953.97;5108158;28;20534;-86
2020/12/25 09:28:24;;;;;;;17.80;8.98;;;;;;;17.38;44.47;96941.75;5086776;28;20141;-87
2020/12/25 09:30:51;;;;;;;19.55;11.98;;;;;;;17.59;43.88;96937.78;5096692;28;20542;-81
2020/12/25 09:33:16;;;;;;;29.83;15.73;;;;;;;17.84;44.37;96937.00;5106522;28;20034;-86
2020/12/25 09:35:42;;;;;;;36.70;20.10;;;;;;;17.64;43.33;96935.47;5087362;28;20055;-81
2020/12/25 09:38:08;;;;;;;17.20;10.63;;;;;;;17.44;43.29;96928.47;5100102;28;20038;-88
2020/12/25 09:43:54;;;;;;;20.30;8.45;;;;;;;17.05;43.56;96917.03;5045948;28;20420;-81
2020/12/25 09:46:19;;;;;;;18.65;9.40;;;;;;;16.82;44.30;96917.56;5033563;28;20036;-84
2020/12/25 09:48:45;;;;;;;12.48;6.75;;;;;;;16.56;45.11;96918.22;5067041;28;20035;-85
2020/12/25 09:51:11;;;;;;;12.45;7.68;;;;;;;16.32;45.88;96904.34;5094510;28;20417;-87
2020/12/25 09:53:37;;;;;;;16.42;8.32;;;;;;;16.31;45.87;96901.78;5087156;28;20491;-87
2020/12/25 09:56:03;;;;;;;8.70;5.45;;;;;;;16.12;45.96;96899.97;5087915;28;20030;-87
2020/12/25 09:58:28;;;;;;;9.60;5.65;;;;;;;16.20;46.40;96906.38;5091389;28;20037;-89
2020/12/25 10:00:54;;;;;;;14.38;7.10;;;;;;;16.05;47.56;96877.28;5090133;28;20035;-80
2020/12/25 10:03:19;;;;;;;11.55;4.80;;;;;;;16.13;46.08;96890.91;5120190;28;20089;-88
2020/12/25 10:05:45;;;;;;;8.88;5.57;;;;;;;16.17;46.59;96893.19;5089704;28;20031;-84
2020/12/25 10:08:11;;;;;;;15.38;8.10;;;;;;;16.22;46.63;96896.28;5091075;28;20034;-87
2020/12/25 10:10:38;;;;;;;12.40;7.20;;;;;;;16.27;45.65;96890.47;5086255;28;20028;-86
2020/12/25 10:13:05;;;;;;;19.15;10.05;;;;;;;16.38;45.89;96884.00;5092242;28;20027;-85
2020/12/25 10:15:31;;;;;;;20.27;7.57;;;;;;;16.57;46.25;96887.53;5092312;27;20051;-83
2020/12/25 10:17:56;;;;;;;15.60;7.80;;;;;;;16.70;45.51;96873.72;5089472;28;20105;-86
2020/12/25 10:20:22;;;;;;;19.23;9.60;;;;;;;16.75;44.79;96869.56;5106868;28;20160;-86
2020/12/25 10:22:47;;;;;;;7.93;4.30;;;;;;;16.68;44.57;96873.84;5088726;27;20050;-85
2020/12/25 10:25:13;;;;;;;8.93;5.25;;;;;;;16.57;45.43;96873.19;5105586;27;20114;-86
2020/12/25 10:27:39;;;;;;;15.23;6.65;;;;;;;16.53;45.34;96866.34;5112553;27;20027;-89
2020/12/25 10:30:23;;;;;;;14.50;7.65;;;;;;;16.56;45.48;96842.63;5088408;28;20031;-90
2020/12/25 10:32:49;;;;;;;11.73;5.70;;;;;;;16.74;44.85;96861.59;5089714;27;20027;-87
2020/12/25 10:35:43;;;;;;;13.48;6.88;;;;;;;16.88;44.81;96871.06;5093816;28;20048;-89
2020/12/25 10:38:12;;;;;;;13.13;6.72;;;;;;;16.88;44.62;96835.94;5079608;28;20039;-89
2020/12/25 10:40:57;;;;;;;11.02;6.00;;;;;;;17.20;43.69;96871.41;5081954;28;20037;-89
2020/12/25 10:43:23;;;;;;;11.95;6.97;;;;;;;17.14;44.24;96867.47;5091688;28;20033;-91
2020/12/25 10:45:52;;;;;;;13.20;5.90;;;;;;;17.07;43.60;96843.94;5069977;28;20035;-92
2020/12/25 10:48:20;;;;;;;20.42;7.75;;;;;;;17.32;43.23;96829.63;5086588;28;20035;-92
2020/12/25 10:50:46;;;;;;;9.95;4.60;;;;;;;17.55;42.08;96847.16;5092269;28;20036;-88
2020/12/25 10:53:11;;;;;;;9.00;5.85;;;;;;;17.62;42.30;96855.50;5068505;28;20124;-89
2020/12/25 10:55:37;;;;;;;8.15;5.10;;;;;;;17.46;42.81;96849.88;5076913;28;20028;-88
2020/12/25 10:58:04;;;;;;;28.45;16.23;;;;;;;17.59;43.92;96855.81;5093417;28;20563;-86
2020/12/25 11:00:30;;;;;;;22.33;12.18;;;;;;;17.53;42.46;96822.09;5061120;28;20411;-89
2020/12/25 11:02:56;;;;;;;16.77;6.40;;;;;;;17.73;41.95;96839.88;5065792;28;20114;-90
2020/12/25 11:05:22;;;;;;;9.45;5.15;;;;;;;17.88;41.64;96824.75;5081378;28;20048;-90
2020/12/25 11:07:47;;;;;;;12.52;7.88;;;;;;;18.10;41.48;96822.53;5094987;28;20035;-89
2020/12/25 11:10:13;;;;;;;10.43;5.40;;;;;;;18.21;40.78;96825.81;5063653;28;20114;-90
2020/12/25 11:12:38;;;;;;;7.38;5.00;;;;;;;18.15;40.83;96826.47;5087881;28;20028;-83
2020/12/25 11:15:10;;;;;;;7.60;4.65;;;;;;;18.34;40.46;96819.97;5077030;28;20016;-91
2020/12/25 11:17:48;;;;;;;10.45;5.82;;;;;;;18.62;40.01;96826.94;5079992;28;20516;-91
2020/12/25 11:20:13;;;;;;;9.75;5.50;;;;;;;18.56;40.42;96805.06;5098021;28;20117;-92
2020/12/25 11:22:39;;;;;;;11.25;7.00;;;;;;;18.75;39.75;96813.78;5074313;28;20032;-93
2020/12/25 11:25:05;;;;;;;74.50;34.50;;;;;;;18.73;39.81;96825.81;5077455;28;20096;-86
2020/12/25 11:27:32;;;;;;;67.22;24.67;;;;;;;18.81;40.03;96825.84;5093615;28;20039;-88
2020/12/25 11:29:57;;;;;;;13.43;6.28;;;;;;;18.53;40.02;96808.09;5059471;28;20036;-91
2020/12/25 11:32:23;;;;;;;24.65;14.00;;;;;;;18.40;40.48;96830.16;5097449;28;20031;-90